Deer Isle, Maine
Current Conditions -  °F | °C
As of 11:55 AM on Friday 28 Nov 2014 (Local Time) from KBHB Reporting Station
Few Clouds Few Clouds  
Wind Chill: 17°   Ceiling: Unl
Heat Index: 27°   Visibility: 10mi
Dew Point: 19°   Wind: 9mph
Humidity: 74%   Direction: 360°N
Pressure: 30"   Gusts: NA
Location:  44.21°N, 68.68°W
Report Text: KBHB 281655Z AUTO 36008KT 320V020 10SM FEW080 M03/M07 A3000 RMK AO1
Loading
Personal Weather Stations






























Interactive Weather Map New forecast layout! Learn more

10-Day Weather Forecast

Advertisements
Track Severe Weather on mobile